Time;durP1;ratioP1;P1;durP2;ratioP2;P2;SDS_P1;SDS_P2;PMS_P1;PMS_P2;Temp;Humidity;BMP_temperature;BMP_pressure;BME280_temperature;BME280_humidity;BME280_pressure;Samples;Min_cycle;Max_cycle;Signal;HPM_P1;HPM_P2
2023/09/29 00:00:54;;;;;;;18.73;9.17;;;;;;;;;;5038334;28;20418;-80
2023/09/29 00:03:21;;;;;;;14.50;9.30;;;;;;;;;;5055965;28;20500;-80
2023/09/29 00:05:49;;;;;;;14.20;10.00;;;;;;;;;;5055838;28;20937;-82
2023/09/29 00:08:17;;;;;;;11.10;8.87;;;;;;;;;;5055277;28;20499;-81
2023/09/29 00:10:45;;;;;;;15.70;10.03;;;;;;;;;;5054416;28;20437;-81
2023/09/29 00:13:11;;;;;;;14.43;10.07;;;;;;;;;;5054513;28;20445;-81
2023/09/29 00:15:38;;;;;;;12.20;10.10;;;;;;;;;;5055457;28;20535;-81
2023/09/29 00:18:07;;;;;;;12.23;9.50;;;;;;;;;;5055978;28;20437;-82
2023/09/29 00:20:33;;;;;;;13.47;10.40;;;;;;;;;;5056334;28;20498;-80
2023/09/29 00:23:00;;;;;;;17.10;9.80;;;;;;;;;;5056038;28;20468;-78
2023/09/29 00:25:27;;;;;;;17.97;10.30;;;;;;;;;;5059696;28;20434;-80
2023/09/29 00:27:55;;;;;;;16.60;11.10;;;;;;;;;;5075356;28;21002;-81
2023/09/29 00:30:22;;;;;;;16.50;11.70;;;;;;;;;;5077439;28;20554;-83
2023/09/29 00:32:49;;;;;;;17.83;11.20;;;;;;;;;;5076138;28;20413;-79
2023/09/29 00:35:24;;;;;;;16.23;12.87;;;;;;;;;;5075136;28;20450;-80
2023/09/29 00:37:50;;;;;;;15.67;12.87;;;;;;;;;;5075650;28;20423;-81
2023/09/29 00:40:17;;;;;;;16.53;14.57;;;;;;;;;;5076165;28;20446;-79
2023/09/29 00:42:46;;;;;;;18.10;12.17;;;;;;;;;;5074768;28;20421;-79
2023/09/29 00:45:16;;;;;;;22.07;14.03;;;;;;;;;;5076698;28;20438;-80
2023/09/29 00:47:43;;;;;;;21.40;13.70;;;;;;;;;;5075933;28;20877;-80
2023/09/29 00:50:14;;;;;;;18.90;14.07;;;;;;;;;;5074830;28;20406;-79
2023/09/29 00:52:41;;;;;;;21.70;16.97;;;;;;;;;;5075966;28;20971;-80
2023/09/29 00:55:11;;;;;;;22.40;16.33;;;;;;;;;;5079803;28;20878;-79
2023/09/29 00:57:39;;;;;;;27.50;19.23;;;;;;;;;;5080375;28;20416;-81
2023/09/29 01:00:12;;;;;;;28.67;18.10;;;;;;;;;;5082177;28;20459;-80
2023/09/29 01:02:43;;;;;;;23.27;17.13;;;;;;;;;;5078659;28;20451;-79
2023/09/29 01:05:10;;;;;;;19.73;16.30;;;;;;;;;;5081381;28;20979;-79
2023/09/29 01:07:36;;;;;;;23.20;17.60;;;;;;;;;;5081529;28;20497;-80
2023/09/29 01:10:04;;;;;;;22.07;18.13;;;;;;;;;;5078354;28;20462;-79
2023/09/29 01:12:31;;;;;;;24.77;17.53;;;;;;;;;;5081790;28;20529;-79
2023/09/29 01:14:58;;;;;;;22.13;16.30;;;;;;;;;;5080965;28;20445;-82
2023/09/29 01:17:25;;;;;;;21.77;17.90;;;;;;;;;;5066049;28;20444;-79
2023/09/29 01:19:54;;;;;;;24.30;20.07;;;;;;;;;;5059301;28;20471;-81
2023/09/29 01:22:21;;;;;;;29.03;21.43;;;;;;;;;;5058857;28;20886;-81
2023/09/29 01:24:48;;;;;;;28.27;20.00;;;;;;;;;;5058643;28;20467;-81
2023/09/29 01:27:16;;;;;;;25.93;19.90;;;;;;;;;;5059072;28;20425;-81
2023/09/29 01:29:44;;;;;;;24.43;19.47;;;;;;;;;;5058180;28;20487;-79
2023/09/29 01:32:11;;;;;;;30.83;24.87;;;;;;;;;;5061634;28;20479;-78
2023/09/29 01:34:37;;;;;;;28.27;23.33;;;;;;;;;;5068036;28;20483;-79
2023/09/29 01:37:04;;;;;;;34.97;23.03;;;;;;;;;;5079209;28;20429;-81
2023/09/29 01:39:30;;;;;;;27.20;21.87;;;;;;;;;;5077678;28;20554;-81
2023/09/29 01:42:00;;;;;;;27.23;20.60;;;;;;;;;;5081613;28;20462;-81
2023/09/29 01:44:26;;;;;;;27.57;23.70;;;;;;;;;;5078003;28;20971;-80
2023/09/29 01:46:53;;;;;;;24.63;20.43;;;;;;;;;;5079123;28;20441;-82
2023/09/29 01:49:22;;;;;;;37.37;25.23;;;;;;;;;;5077985;28;20471;-81
2023/09/29 01:51:50;;;;;;;32.30;25.50;;;;;;;;;;5078430;28;20435;-82
2023/09/29 01:54:18;;;;;;;32.93;27.50;;;;;;;;;;5074574;28;20474;-78
2023/09/29 01:56:44;;;;;;;31.90;24.93;;;;;;;;;;5082462;28;20450;-78
2023/09/29 01:59:13;;;;;;;30.63;24.67;;;;;;;;;;5082151;28;20899;-81
2023/09/29 02:01:39;;;;;;;28.30;25.23;;;;;;;;;;5078805;28;20558;-80
2023/09/29 02:04:05;;;;;;;29.33;24.20;;;;;;;;;;5078480;28;20475;-80
2023/09/29 02:06:32;;;;;;;37.13;25.10;;;;;;;;;;5064596;28;20414;-80
2023/09/29 02:08:58;;;;;;;29.57;24.10;;;;;;;;;;5057842;28;20520;-80
2023/09/29 02:11:24;;;;;;;29.23;25.13;;;;;;;;;;5058758;28;20505;-81
2023/09/29 02:13:51;;;;;;;34.00;25.97;;;;;;;;;;5058183;28;20478;-82
2023/09/29 02:16:19;;;;;;;32.67;26.60;;;;;;;;;;5058463;28;20451;-81
2023/09/29 02:18:47;;;;;;;34.83;27.97;;;;;;;;;;5059825;28;20529;-82
2023/09/29 02:21:21;;;;;;;32.10;26.07;;;;;;;;;;5058489;28;20440;-80
2023/09/29 02:23:48;;;;;;;34.37;26.77;;;;;;;;;;5059120;28;20479;-80
2023/09/29 02:26:14;;;;;;;32.77;27.83;;;;;;;;;;5058256;28;20538;-80
2023/09/29 02:28:41;;;;;;;36.00;28.73;;;;;;;;;;5056968;28;20485;-80
2023/09/29 02:31:11;;;;;;;40.10;29.10;;;;;;;;;;5060345;28;20430;-82
2023/09/29 02:33:40;;;;;;;36.97;30.73;;;;;;;;;;5057435;28;20457;-80
2023/09/29 02:36:06;;;;;;;43.60;30.00;;;;;;;;;;5056702;28;20462;-80
2023/09/29 02:38:33;;;;;;;35.30;29.10;;;;;;;;;;5057532;28;20829;-83
2023/09/29 02:41:00;;;;;;;37.73;28.70;;;;;;;;;;5056480;28;20468;-80
2023/09/29 02:43:29;;;;;;;35.80;29.80;;;;;;;;;;5059449;28;20450;-81
2023/09/29 02:45:55;;;;;;;35.97;30.00;;;;;;;;;;5058245;28;20447;-80
2023/09/29 02:48:21;;;;;;;44.33;30.87;;;;;;;;;;5057447;28;20479;-81
2023/09/29 02:50:49;;;;;;;44.27;30.63;;;;;;;;;;5056986;28;20419;-81
2023/09/29 02:53:18;;;;;;;37.83;32.50;;;;;;;;;;5057311;28;20468;-82
2023/09/29 02:55:45;;;;;;;33.97;29.53;;;;;;;;;;5057527;28;20953;-80
2023/09/29 02:58:12;;;;;;;34.70;29.70;;;;;;;;;;5056394;28;20973;-80
2023/09/29 03:00:40;;;;;;;41.87;32.00;;;;;;;;;;5057666;28;20504;-80
2023/09/29 03:03:09;;;;;;;39.57;30.73;;;;;;;;;;5055547;28;20460;-81
2023/09/29 03:05:36;;;;;;;38.17;31.27;;;;;;;;;;5057567;28;20440;-81
2023/09/29 03:08:04;;;;;;;40.07;32.10;;;;;;;;;;5057559;28;20464;-80
2023/09/29 03:10:32;;;;;;;38.40;32.03;;;;;;;;;;5056777;28;20436;-81
2023/09/29 03:12:58;;;;;;;41.97;31.90;;;;;;;;;;5056911;28;20535;-79
2023/09/29 03:15:25;;;;;;;36.57;31.20;;;;;;;;;;5057097;28;20435;-79
2023/09/29 03:17:52;;;;;;;36.17;32.50;;;;;;;;;;5057388;28;20448;-80
2023/09/29 03:20:19;;;;;;;43.63;33.70;;;;;;;;;;5057249;28;20431;-80
2023/09/29 03:22:46;;;;;;;37.37;33.37;;;;;;;;;;5056793;28;20439;-79
2023/09/29 03:25:18;;;;;;;40.97;31.20;;;;;;;;;;5057614;28;20460;-79
2023/09/29 03:27:45;;;;;;;46.77;33.37;;;;;;;;;;5040299;28;20448;-81
2023/09/29 03:30:12;;;;;;;37.60;29.70;;;;;;;;;;5055343;28;20454;-80
2023/09/29 03:32:40;;;;;;;44.07;31.70;;;;;;;;;;5055732;28;20440;-82
2023/09/29 03:35:08;;;;;;;38.33;33.43;;;;;;;;;;5056315;28;20474;-80
2023/09/29 03:37:37;;;;;;;41.13;33.40;;;;;;;;;;5057200;28;20440;-82
2023/09/29 03:40:08;;;;;;;43.23;32.20;;;;;;;;;;5056975;28;20480;-82
2023/09/29 03:42:36;;;;;;;45.03;35.13;;;;;;;;;;5055832;28;20435;-80
2023/09/29 03:45:05;;;;;;;38.60;32.47;;;;;;;;;;5058032;28;20483;-83
2023/09/29 03:47:32;;;;;;;47.10;35.53;;;;;;;;;;5056084;28;20446;-81
2023/09/29 03:49:59;;;;;;;42.47;35.70;;;;;;;;;;5055968;28;20454;-81
2023/09/29 03:52:29;;;;;;;42.87;33.10;;;;;;;;;;5056857;28;20815;-80
2023/09/29 03:54:56;;;;;;;40.90;33.57;;;;;;;;;;5056395;28;20530;-79
2023/09/29 03:57:22;;;;;;;40.50;32.63;;;;;;;;;;5056223;28;20447;-79
2023/09/29 03:59:50;;;;;;;40.23;34.77;;;;;;;;;;5055328;28;20456;-80
2023/09/29 04:02:17;;;;;;;39.67;32.87;;;;;;;;;;5056731;28;20436;-79
2023/09/29 04:04:44;;;;;;;41.80;34.63;;;;;;;;;;5055821;28;20480;-81
2023/09/29 04:07:10;;;;;;;46.03;32.67;;;;;;;;;;5056630;28;20431;-79
2023/09/29 04:09:37;;;;;;;43.60;35.23;;;;;;;;;;5054528;28;20461;-80
2023/09/29 04:12:03;;;;;;;42.10;36.37;;;;;;;;;;5056636;28;20436;-82
2023/09/29 04:14:31;;;;;;;47.97;33.67;;;;;;;;;;5053974;28;20468;-79
2023/09/29 04:16:59;;;;;;;40.70;34.03;;;;;;;;;;5054944;28;20414;-82
2023/09/29 04:19:25;;;;;;;38.93;34.53;;;;;;;;;;5054967;28;20474;-79
2023/09/29 04:21:51;;;;;;;43.33;35.77;;;;;;;;;;5056292;28;20436;-83
2023/09/29 04:24:20;;;;;;;39.60;34.43;;;;;;;;;;5055292;28;20476;-84
2023/09/29 04:26:48;;;;;;;42.93;33.93;;;;;;;;;;5055928;28;20462;-84
2023/09/29 04:29:14;;;;;;;41.77;34.27;;;;;;;;;;5057763;28;20498;-81
2023/09/29 04:31:41;;;;;;;40.90;34.20;;;;;;;;;;5060435;28;20969;-79
2023/09/29 04:34:08;;;;;;;37.17;33.03;;;;;;;;;;5059220;28;20450;-82
2023/09/29 04:36:35;;;;;;;41.43;34.43;;;;;;;;;;5062137;28;20463;-81
2023/09/29 04:39:02;;;;;;;45.00;35.00;;;;;;;;;;5058760;28;20994;-82
2023/09/29 04:41:29;;;;;;;43.27;33.23;;;;;;;;;;5060543;28;20823;-79
2023/09/29 04:43:57;;;;;;;49.63;35.00;;;;;;;;;;5059764;28;20475;-79
2023/09/29 04:46:24;;;;;;;37.90;33.13;;;;;;;;;;5060060;28;20439;-81
2023/09/29 04:48:53;;;;;;;41.00;32.80;;;;;;;;;;5061768;28;20477;-81
2023/09/29 04:51:20;;;;;;;40.87;33.03;;;;;;;;;;5062155;28;20535;-80
2023/09/29 04:53:47;;;;;;;41.10;33.40;;;;;;;;;;5057358;28;20478;-81
2023/09/29 04:56:13;;;;;;;38.07;32.67;;;;;;;;;;5058161;28;20459;-83
2023/09/29 04:58:39;;;;;;;39.17;33.63;;;;;;;;;;5057464;28;20536;-82
2023/09/29 05:01:06;;;;;;;53.93;38.53;;;;;;;;;;5059008;28;20447;-80
2023/09/29 05:03:32;;;;;;;39.97;32.27;;;;;;;;;;5058772;28;20475;-81
2023/09/29 05:05:59;;;;;;;46.77;34.60;;;;;;;;;;5057411;28;20870;-81
2023/09/29 05:08:26;;;;;;;46.27;31.90;;;;;;;;;;5059111;28;20446;-81
2023/09/29 05:10:53;;;;;;;37.47;30.37;;;;;;;;;;5063127;28;20462;-79
2023/09/29 05:13:20;;;;;;;36.57;31.47;;;;;;;;;;5052323;28;20479;-79
2023/09/29 05:15:46;;;;;;;39.83;32.80;;;;;;;;;;5032148;28;20946;-79
2023/09/29 05:18:12;;;;;;;37.63;31.17;;;;;;;;;;5033567;28;20982;-79
2023/09/29 05:20:39;;;;;;;39.60;32.83;;;;;;;;;;5019145;28;20445;-81
2023/09/29 05:23:07;;;;;;;44.80;34.53;;;;;;;;;;5019737;28;20468;-80
2023/09/29 05:25:35;;;;;;;40.07;33.17;;;;;;;;;;5020330;28;20442;-79
2023/09/29 05:28:04;;;;;;;41.73;35.67;;;;;;;;;;5019387;28;20461;-81
2023/09/29 05:30:30;;;;;;;42.20;33.53;;;;;;;;;;5018824;28;20492;-82
2023/09/29 05:32:57;;;;;;;44.93;33.70;;;;;;;;;;5019129;28;20814;-82
2023/09/29 05:35:24;;;;;;;34.63;30.87;;;;;;;;;;5017893;28;20476;-80
2023/09/29 05:37:51;;;;;;;44.07;34.87;;;;;;;;;;5018911;28;20564;-81
2023/09/29 05:40:17;;;;;;;44.73;34.40;;;;;;;;;;5019454;28;20520;-80
2023/09/29 05:42:45;;;;;;;44.57;33.77;;;;;;;;;;5019499;28;20453;-80
2023/09/29 05:45:11;;;;;;;44.10;34.37;;;;;;;;;;5018739;28;20436;-82
2023/09/29 05:47:38;;;;;;;41.43;33.67;;;;;;;;;;5024728;28;20465;-80
2023/09/29 05:50:04;;;;;;;42.77;33.03;;;;;;;;;;5038167;28;20525;-81
2023/09/29 05:52:31;;;;;;;39.93;31.10;;;;;;;;;;5039074;28;20444;-80
2023/09/29 05:54:58;;;;;;;37.23;30.93;;;;;;;;;;5038082;28;20480;-81
2023/09/29 05:57:24;;;;;;;45.00;33.63;;;;;;;;;;5038052;28;20515;-80
2023/09/29 05:59:54;;;;;;;41.67;31.70;;;;;;;;;;5038211;28;20791;-80
2023/09/29 06:02:21;;;;;;;37.50;30.33;;;;;;;;;;5039343;28;20493;-80
2023/09/29 06:04:47;;;;;;;36.87;30.37;;;;;;;;;;5038311;28;20477;-80
2023/09/29 06:07:13;;;;;;;39.30;32.10;;;;;;;;;;5038502;28;20461;-80
2023/09/29 06:09:40;;;;;;;35.87;30.03;;;;;;;;;;5041768;28;20476;-81
2023/09/29 06:12:07;;;;;;;43.30;32.27;;;;;;;;;;5036829;28;20436;-81
2023/09/29 06:14:34;;;;;;;34.30;29.57;;;;;;;;;;5040101;28;20492;-81
2023/09/29 06:17:02;;;;;;;38.87;31.73;;;;;;;;;;5053764;28;20472;-82
2023/09/29 06:19:29;;;;;;;34.30;28.77;;;;;;;;;;5038755;28;20477;-81
2023/09/29 06:21:56;;;;;;;43.90;28.97;;;;;;;;;;5038353;28;20433;-81
2023/09/29 06:24:22;;;;;;;34.10;27.97;;;;;;;;;;5037433;28;20481;-81
2023/09/29 06:26:49;;;;;;;32.20;28.40;;;;;;;;;;5038137;28;20441;-79
2023/09/29 06:29:15;;;;;;;38.47;29.43;;;;;;;;;;5037105;28;20500;-82
2023/09/29 06:31:41;;;;;;;37.17;29.47;;;;;;;;;;5036226;28;20447;-79
2023/09/29 06:34:09;;;;;;;40.33;30.10;;;;;;;;;;5038063;28;20487;-81
2023/09/29 06:36:35;;;;;;;38.00;28.63;;;;;;;;;;5038640;28;20425;-80
2023/09/29 06:39:02;;;;;;;35.50;29.90;;;;;;;;;;5037445;28;20998;-81
2023/09/29 06:41:28;;;;;;;50.40;30.00;;;;;;;;;;5038789;28;20444;-81
2023/09/29 06:43:54;;;;;;;38.40;28.83;;;;;;;;;;5037390;28;20481;-81
2023/09/29 06:46:21;;;;;;;34.03;28.23;;;;;;;;;;5038053;28;20437;-81
2023/09/29 06:48:47;;;;;;;35.30;28.20;;;;;;;;;;5037440;28;20469;-80
2023/09/29 06:51:16;;;;;;;40.10;29.27;;;;;;;;;;5037036;28;20539;-81
2023/09/29 06:53:42;;;;;;;33.60;29.43;;;;;;;;;;5037423;28;20479;-80
2023/09/29 06:56:08;;;;;;;38.40;28.90;;;;;;;;;;5053146;28;20441;-83
2023/09/29 06:58:36;;;;;;;32.03;28.43;;;;;;;;;;5039393;28;20476;-81
2023/09/29 07:01:03;;;;;;;33.43;27.60;;;;;;;;;;5039278;28;20957;-80
2023/09/29 07:03:31;;;;;;;30.20;26.23;;;;;;;;;;5037718;28;20473;-81
2023/09/29 07:05:58;;;;;;;31.57;25.67;;;;;;;;;;5037870;28;20535;-82
2023/09/29 07:08:26;;;;;;;33.50;27.90;;;;;;;;;;5036581;28;20472;-79
2023/09/29 07:10:52;;;;;;;30.37;26.13;;;;;;;;;;5037371;28;20543;-81
2023/09/29 07:13:19;;;;;;;37.13;26.03;;;;;;;;;;5036813;28;20478;-81
2023/09/29 07:15:46;;;;;;;30.43;24.63;;;;;;;;;;5036716;28;20452;-80
2023/09/29 07:18:13;;;;;;;37.40;26.40;;;;;;;;;;5041504;28;20472;-80
2023/09/29 07:20:40;;;;;;;31.50;25.53;;;;;;;;;;5037709;28;20854;-80
2023/09/29 07:23:08;;;;;;;30.10;24.37;;;;;;;;;;5037030;28;20837;-81
2023/09/29 07:25:37;;;;;;;30.27;23.33;;;;;;;;;;5037225;28;20958;-81
2023/09/29 07:28:05;;;;;;;28.50;22.33;;;;;;;;;;5038961;28;20460;-81
2023/09/29 07:30:32;;;;;;;30.90;21.70;;;;;;;;;;5041289;28;20492;-81
2023/09/29 07:32:58;;;;;;;28.23;21.50;;;;;;;;;;5051479;28;20452;-81
2023/09/29 07:35:25;;;;;;;36.13;23.57;;;;;;;;;;5039747;28;20472;-81
2023/09/29 07:37:52;;;;;;;27.53;22.60;;;;;;;;;;5038640;28;20475;-80
2023/09/29 07:40:19;;;;;;;26.40;21.37;;;;;;;;;;5059305;28;20470;-80
2023/09/29 07:42:47;;;;;;;24.90;21.10;;;;;;;;;;5055195;28;20432;-81
2023/09/29 07:45:14;;;;;;;30.27;22.00;;;;;;;;;;5054670;28;20460;-80
2023/09/29 07:47:41;;;;;;;30.33;20.97;;;;;;;;;;5056749;28;20447;-80
2023/09/29 07:50:08;;;;;;;24.33;19.57;;;;;;;;;;5034583;28;20481;-81
2023/09/29 07:52:37;;;;;;;23.20;18.70;;;;;;;;;;5036894;28;20444;-80
2023/09/29 07:55:04;;;;;;;27.17;17.90;;;;;;;;;;5035770;28;20473;-80
2023/09/29 07:57:31;;;;;;;28.50;17.40;;;;;;;;;;5037023;28;20449;-80
2023/09/29 07:59:58;;;;;;;22.73;15.60;;;;;;;;;;5036330;28;20473;-80
2023/09/29 08:02:25;;;;;;;20.30;16.80;;;;;;;;;;5036874;28;20445;-80
2023/09/29 08:04:51;;;;;;;22.43;16.90;;;;;;;;;;5035968;28;21017;-81
2023/09/29 08:07:18;;;;;;;16.87;14.73;;;;;;;;;;5036456;28;20433;-80
2023/09/29 08:09:44;;;;;;;18.93;15.17;;;;;;;;;;5035667;28;20487;-80
2023/09/29 08:12:11;;;;;;;21.90;17.13;;;;;;;;;;5036772;28;20968;-82
2023/09/29 08:14:37;;;;;;;18.50;15.93;;;;;;;;;;5036122;28;20481;-80
2023/09/29 08:17:04;;;;;;;17.57;14.63;;;;;;;;;;5041188;28;20535;-80
2023/09/29 08:19:31;;;;;;;18.17;13.60;;;;;;;;;;5036023;28;20555;-81
2023/09/29 08:21:57;;;;;;;24.53;14.73;;;;;;;;;;5039002;28;20509;-80
2023/09/29 08:24:24;;;;;;;18.77;13.40;;;;;;;;;;5038224;28;20483;-80
2023/09/29 08:26:50;;;;;;;18.63;14.50;;;;;;;;;;5036484;28;20440;-80
2023/09/29 08:29:16;;;;;;;19.13;13.63;;;;;;;;;;5036222;28;20819;-82
2023/09/29 08:31:43;;;;;;;18.57;13.20;;;;;;;;;;5036878;28;20480;-80
2023/09/29 08:34:11;;;;;;;15.00;11.90;;;;;;;;;;5034894;28;20473;-80
2023/09/29 08:36:37;;;;;;;14.03;12.53;;;;;;;;;;5036750;28;20424;-82
2023/09/29 08:39:04;;;;;;;16.77;12.13;;;;;;;;;;5036564;28;20559;-80
2023/09/29 08:41:32;;;;;;;13.57;12.10;;;;;;;;;;5036867;28;20440;-82
2023/09/29 08:44:00;;;;;;;15.53;12.67;;;;;;;;;;5036032;28;20480;-79
2023/09/29 08:46:27;;;;;;;17.60;12.37;;;;;;;;;;5036211;28;20441;-79
2023/09/29 08:48:55;;;;;;;14.40;11.23;;;;;;;;;;5034786;28;20567;-79
2023/09/29 08:51:23;;;;;;;12.63;11.40;;;;;;;;;;5036426;28;20481;-81
2023/09/29 08:53:51;;;;;;;13.80;11.60;;;;;;;;;;5036133;28;20483;-79
2023/09/29 08:56:18;;;;;;;13.40;12.00;;;;;;;;;;5036869;28;20444;-79
2023/09/29 08:58:45;;;;;;;18.77;11.60;;;;;;;;;;5034313;28;20471;-79
2023/09/29 09:01:12;;;;;;;14.60;11.93;;;;;;;;;;5036554;28;20974;-79
2023/09/29 09:03:39;;;;;;;12.30;10.77;;;;;;;;;;5033524;28;20484;-81
2023/09/29 09:06:19;;;;;;;17.83;11.10;;;;;;;;;;5036016;28;21045;-80
2023/09/29 09:08:48;;;;;;;16.83;11.90;;;;;;;;;;5035008;28;20498;-83
2023/09/29 09:11:14;;;;;;;16.30;12.43;;;;;;;;;;5035702;28;20485;-81
2023/09/29 09:13:41;;;;;;;15.80;10.80;;;;;;;;;;5035170;28;20476;-81
2023/09/29 09:16:09;;;;;;;14.63;10.83;;;;;;;;;;5039823;28;20448;-81
2023/09/29 09:18:36;;;;;;;14.93;10.20;;;;;;;;;;5039293;28;20464;-80
2023/09/29 09:21:02;;;;;;;10.23;9.23;;;;;;;;;;5039945;28;20460;-81
2023/09/29 09:23:37;;;;;;;10.27;9.17;;;;;;;;;;5038914;28;20469;-81
2023/09/29 09:26:13;;;;;;;13.73;9.73;;;;;;;;;;5039542;28;20943;-80
2023/09/29 09:28:40;;;;;;;13.77;9.53;;;;;;;;;;5037780;28;20514;-80
2023/09/29 09:31:07;;;;;;;13.03;8.87;;;;;;;;;;5041282;28;21101;-81
2023/09/29 09:33:35;;;;;;;11.60;9.30;;;;;;;;;;5038849;28;20530;-81
2023/09/29 09:36:06;;;;;;;14.43;9.23;;;;;;;;;;5038831;28;20810;-81
2023/09/29 09:38:32;;;;;;;13.93;8.70;;;;;;;;;;5036618;28;20472;-81
2023/09/29 09:41:00;;;;;;;10.93;9.80;;;;;;;;;;5038672;28;20494;-81
2023/09/29 09:43:35;;;;;;;16.07;10.40;;;;;;;;;;5038592;28;20838;-80
2023/09/29 09:46:12;;;;;;;10.93;9.70;;;;;;;;;;5039037;28;20889;-80
2023/09/29 09:48:45;;;;;;;16.47;11.20;;;;;;;;;;5038536;28;20469;-80
2023/09/29 09:51:19;;;;;;;10.53;9.40;;;;;;;;;;5038951;28;20480;-82
2023/09/29 09:53:47;;;;;;;15.03;9.47;;;;;;;;;;5038018;28;20479;-81
2023/09/29 09:56:19;;;;;;;16.40;9.73;;;;;;;;;;5039375;28;20468;-79
2023/09/29 09:58:48;;;;;;;11.13;9.27;;;;;;;;;;5038465;28;21062;-79
2023/09/29 10:01:15;;;;;;;12.67;8.97;;;;;;;;;;5039150;28;20436;-79
2023/09/29 10:03:42;;;;;;;10.83;8.60;;;;;;;;;;5038784;28;20477;-79
2023/09/29 10:06:10;;;;;;;10.03;7.87;;;;;;;;;;5039315;28;20453;-79
2023/09/29 10:08:37;;;;;;;13.27;9.10;;;;;;;;;;5038606;28;20469;-80
2023/09/29 10:11:10;;;;;;;10.00;7.30;;;;;;;;;;5039102;28;20487;-79
2023/09/29 10:13:37;;;;;;;7.80;7.00;;;;;;;;;;5038519;28;20483;-79
2023/09/29 10:16:06;;;;;;;12.10;8.10;;;;;;;;;;5038947;28;20830;-79
2023/09/29 10:18:33;;;;;;;7.93;7.13;;;;;;;;;;5039166;28;20464;-80
2023/09/29 10:21:06;;;;;;;9.90;6.93;;;;;;;;;;5038844;28;20812;-79
2023/09/29 10:23:43;;;;;;;9.53;6.47;;;;;;;;;;5038235;28;20477;-80
2023/09/29 10:26:10;;;;;;;9.23;5.50;;;;;;;;;;5037771;28;20436;-81
2023/09/29 10:28:38;;;;;;;12.23;6.10;;;;;;;;;;5038336;28;20884;-79
2023/09/29 10:31:13;;;;;;;10.50;5.67;;;;;;;;;;5038702;28;21085;-79
2023/09/29 10:33:48;;;;;;;11.97;5.60;;;;;;;;;;5037787;28;20947;-78
2023/09/29 10:36:14;;;;;;;7.37;5.67;;;;;;;;;;5038665;28;20977;-79
2023/09/29 10:38:41;;;;;;;8.50;4.97;;;;;;;;;;5038395;28;20468;-80
2023/09/29 10:41:09;;;;;;;6.80;4.40;;;;;;;;;;5038207;28;20437;-79
2023/09/29 10:43:36;;;;;;;7.90;4.70;;;;;;;;;;5037470;28;20508;-81
2023/09/29 10:46:09;;;;;;;8.37;4.20;;;;;;;;;;5037415;28;20492;-80
2023/09/29 10:48:45;;;;;;;6.70;4.60;;;;;;;;;;5039507;28;20899;-83
2023/09/29 10:51:11;;;;;;;7.80;4.40;;;;;;;;;;5037950;28;20472;-79
2023/09/29 10:53:38;;;;;;;6.80;5.40;;;;;;;;;;5036367;28;20515;-79
2023/09/29 10:56:04;;;;;;;4.90;4.40;;;;;;;;;;5038253;28;20449;-78
2023/09/29 10:58:37;;;;;;;4.30;3.90;;;;;;;;;;5036429;28;20472;-80
2023/09/29 11:01:05;;;;;;;6.87;4.50;;;;;;;;;;5037595;28;20441;-79
2023/09/29 11:03:31;;;;;;;7.40;4.87;;;;;;;;;;5035976;28;20967;-80
2023/09/29 11:06:03;;;;;;;7.00;3.60;;;;;;;;;;5038060;28;20464;-82
2023/09/29 11:08:30;;;;;;;5.17;4.60;;;;;;;;;;5054731;28;20574;-78
2023/09/29 11:10:57;;;;;;;12.47;4.53;;;;;;;;;;5059830;28;20997;-78
2023/09/29 11:13:26;;;;;;;10.17;5.50;;;;;;;;;;5057953;28;20475;-79
2023/09/29 11:15:52;;;;;;;5.77;4.40;;;;;;;;;;5057552;28;20456;-79
2023/09/29 11:18:31;;;;;;;7.93;3.73;;;;;;;;;;5057203;28;20471;-79
2023/09/29 11:21:00;;;;;;;6.27;4.60;;;;;;;;;;5057986;28;20535;-80
2023/09/29 11:23:28;;;;;;;6.57;4.63;;;;;;;;;;5057609;28;20468;-78
2023/09/29 11:25:57;;;;;;;5.03;4.60;;;;;;;;;;5057762;28;20444;-78
2023/09/29 11:28:24;;;;;;;6.10;4.13;;;;;;;;;;5056909;28;20899;-82
2023/09/29 11:30:51;;;;;;;6.50;4.70;;;;;;;;;;5059458;28;20451;-80
2023/09/29 11:33:17;;;;;;;5.90;4.07;;;;;;;;;;5059186;28;20475;-80
2023/09/29 11:35:45;;;;;;;5.13;3.67;;;;;;;;;;5042181;28;20476;-80
2023/09/29 11:38:19;;;;;;;5.20;4.33;;;;;;;;;;5037111;28;20523;-80
2023/09/29 11:40:46;;;;;;;5.20;3.70;;;;;;;;;;5036345;28;20535;-81
2023/09/29 11:43:12;;;;;;;6.83;4.43;;;;;;;;;;5037312;28;20471;-80
2023/09/29 11:45:39;;;;;;;10.77;4.83;;;;;;;;;;5037210;28;21019;-79
2023/09/29 11:48:06;;;;;;;6.93;3.83;;;;;;;;;;5036433;28;21065;-82
2023/09/29 11:50:34;;;;;;;4.17;3.77;;;;;;;;;;5038285;28;20460;-81
2023/09/29 11:53:06;;;;;;;7.30;4.10;;;;;;;;;;5037892;28;20460;-82
2023/09/29 11:55:36;;;;;;;7.70;4.40;;;;;;;;;;5040470;28;20425;-80
2023/09/29 11:58:03;;;;;;;6.27;3.70;;;;;;;;;;5039233;28;20510;-80
2023/09/29 12:00:30;;;;;;;4.57;3.63;;;;;;;;;;5039282;28;20468;-78
2023/09/29 12:02:56;;;;;;;10.00;3.60;;;;;;;;;;5040502;28;20473;-81
2023/09/29 12:05:23;;;;;;;4.20;3.27;;;;;;;;;;5038471;28;20817;-80
2023/09/29 12:07:49;;;;;;;5.33;3.80;;;;;;;;;;5037060;28;20437;-78
2023/09/29 12:10:17;;;;;;;5.30;3.63;;;;;;;;;;5039151;28;20449;-79
2023/09/29 12:12:45;;;;;;;4.87;3.40;;;;;;;;;;5038246;28;20481;-82
2023/09/29 12:15:14;;;;;;;10.03;4.20;;;;;;;;;;5037540;28;20516;-79
2023/09/29 12:17:40;;;;;;;4.23;3.83;;;;;;;;;;5038357;28;20456;-79
2023/09/29 12:20:09;;;;;;;4.20;3.47;;;;;;;;;;5037467;28;20456;-79
2023/09/29 12:22:36;;;;;;;3.93;3.43;;;;;;;;;;5039697;28;20465;-80
2023/09/29 12:25:03;;;;;;;6.30;4.20;;;;;;;;;;5039178;28;20873;-81
2023/09/29 12:27:30;;;;;;;5.27;4.00;;;;;;;;;;5038574;28;20448;-79
2023/09/29 12:29:58;;;;;;;6.80;4.27;;;;;;;;;;5037526;28;20472;-80
2023/09/29 12:32:24;;;;;;;6.17;4.40;;;;;;;;;;5037746;28;20484;-78
2023/09/29 12:34:50;;;;;;;6.77;4.10;;;;;;;;;;5037093;28;21029;-80
2023/09/29 12:37:17;;;;;;;9.10;4.50;;;;;;;;;;5037289;28;20445;-79
2023/09/29 12:39:45;;;;;;;5.20;4.20;;;;;;;;;;5038769;28;20453;-78
2023/09/29 12:42:11;;;;;;;4.53;3.90;;;;;;;;;;5038955;28;20445;-79
2023/09/29 12:44:38;;;;;;;8.10;3.70;;;;;;;;;;5037780;28;20473;-82
2023/09/29 12:47:06;;;;;;;9.27;5.27;;;;;;;;;;5026717;28;20537;-82
2023/09/29 12:49:32;;;;;;;10.50;5.13;;;;;;;;;;5034474;28;20464;-79
2023/09/29 12:51:58;;;;;;;10.53;5.50;;;;;;;;;;5041177;28;20507;-80
2023/09/29 12:54:25;;;;;;;7.27;5.60;;;;;;;;;;5026140;28;20847;-80
2023/09/29 12:56:54;;;;;;;9.03;5.40;;;;;;;;;;5021782;28;20445;-80
2023/09/29 12:59:23;;;;;;;5.47;4.97;;;;;;;;;;5020189;28;20480;-79
2023/09/29 13:01:49;;;;;;;5.90;5.40;;;;;;;;;;5028862;28;20466;-80
2023/09/29 13:04:25;;;;;;;8.60;6.00;;;;;;;;;;5042035;28;20856;-79
2023/09/29 13:06:52;;;;;;;7.90;5.90;;;;;;;;;;5040356;28;20822;-81
2023/09/29 13:09:18;;;;;;;8.10;5.23;;;;;;;;;;5042958;28;20473;-79
2023/09/29 13:11:48;;;;;;;7.87;5.40;;;;;;;;;;5040200;28;21036;-79
2023/09/29 13:14:15;;;;;;;5.50;5.00;;;;;;;;;;5038942;28;20479;-80
2023/09/29 13:16:41;;;;;;;6.07;5.50;;;;;;;;;;5039771;28;20536;-81
2023/09/29 13:19:08;;;;;;;10.03;6.30;;;;;;;;;;5040401;28;20985;-79
2023/09/29 13:21:35;;;;;;;7.13;5.23;;;;;;;;;;5040596;28;20441;-79
2023/09/29 13:24:03;;;;;;;6.30;5.30;;;;;;;;;;5040516;28;21006;-81
2023/09/29 13:26:30;;;;;;;5.93;5.43;;;;;;;;;;5040719;28;20444;-80
2023/09/29 13:28:56;;;;;;;13.20;6.43;;;;;;;;;;5041711;28;20555;-81
2023/09/29 13:31:22;;;;;;;6.53;5.70;;;;;;;;;;5042699;28;20488;-78
2023/09/29 13:33:50;;;;;;;6.30;5.70;;;;;;;;;;5040991;28;20479;-78
2023/09/29 13:36:17;;;;;;;7.17;5.87;;;;;;;;;;5041152;28;20794;-80
2023/09/29 13:38:45;;;;;;;5.90;5.40;;;;;;;;;;5041328;28;20478;-79
2023/09/29 13:41:12;;;;;;;9.33;6.07;;;;;;;;;;5041048;28;20464;-79
2023/09/29 13:43:40;;;;;;;10.60;6.53;;;;;;;;;;5040833;28;20468;-79
2023/09/29 13:46:06;;;;;;;7.00;6.13;;;;;;;;;;5041233;28;20449;-78
2023/09/29 13:48:33;;;;;;;11.03;6.43;;;;;;;;;;5040683;28;20460;-79
2023/09/29 13:51:03;;;;;;;7.77;6.17;;;;;;;;;;5039836;28;20456;-80
2023/09/29 13:53:32;;;;;;;7.63;6.10;;;;;;;;;;5039864;28;20536;-79
2023/09/29 13:56:04;;;;;;;6.43;5.70;;;;;;;;;;5041642;28;20499;-81
2023/09/29 13:58:30;;;;;;;7.20;5.20;;;;;;;;;;5040044;28;21006;-80
2023/09/29 14:00:57;;;;;;;6.17;5.57;;;;;;;;;;5041242;28;20464;-78
2023/09/29 14:03:24;;;;;;;12.43;6.23;;;;;;;;;;5038583;28;20472;-80
2023/09/29 14:05:51;;;;;;;9.60;6.30;;;;;;;;;;5038678;28;20869;-80
2023/09/29 14:08:19;;;;;;;7.13;5.80;;;;;;;;;;5043750;28;20824;-81
2023/09/29 14:10:45;;;;;;;7.83;5.10;;;;;;;;;;5041049;28;20472;-79
2023/09/29 14:13:13;;;;;;;7.53;6.37;;;;;;;;;;5038412;28;20469;-80
2023/09/29 14:15:39;;;;;;;7.73;5.10;;;;;;;;;;5021526;28;20461;-78
2023/09/29 14:18:06;;;;;;;7.80;6.17;;;;;;;;;;5019626;28;20470;-79
2023/09/29 14:20:35;;;;;;;8.23;5.63;;;;;;;;;;5020775;28;20452;-78
2023/09/29 14:23:02;;;;;;;6.40;5.57;;;;;;;;;;5022650;28;20520;-78
2023/09/29 14:25:28;;;;;;;5.63;5.13;;;;;;;;;;5041851;28;20483;-79
2023/09/29 14:27:56;;;;;;;6.50;5.37;;;;;;;;;;5039440;28;20437;-79